createdAt,value
2022-09-04T00:01:49.963Z,46.60
2022-09-04T00:04:31.108Z,46.70
2022-09-04T00:07:09.408Z,46.40
2022-09-04T00:09:46.852Z,46.90
2022-09-04T00:12:15.369Z,46.90
2022-09-04T00:14:47.964Z,46.70
2022-09-04T00:17:20.861Z,47.50
2022-09-04T00:19:56.304Z,47.20
2022-09-04T00:22:32.212Z,47.20
2022-09-04T00:25:09.307Z,48.20
2022-09-04T00:27:44.662Z,47.60
2022-09-04T00:30:17.009Z,47.10
2022-09-04T00:32:51.572Z,47.30
2022-09-04T00:35:25.236Z,47.40
2022-09-04T00:37:58.986Z,47.10
2022-09-04T00:40:31.403Z,47.50
2022-09-04T00:43:45.215Z,47.40
2022-09-04T00:46:37.405Z,47.50
2022-09-04T00:49:36.470Z,47.90
2022-09-04T00:52:17.538Z,48.70
2022-09-04T00:54:54.395Z,47.80
2022-09-04T00:58:10.635Z,48.00
2022-09-04T01:00:39.277Z,48.50
2022-09-04T01:03:31.442Z,48.00
2022-09-04T01:06:21.771Z,48.90
2022-09-04T01:09:34.867Z,48.30
2022-09-04T01:12:09.432Z,48.50
2022-09-04T01:14:41.592Z,48.80
2022-09-04T01:17:18.085Z,48.40
2022-09-04T01:19:56.712Z,48.40
2022-09-04T01:22:52.947Z,48.50
2022-09-04T01:25:34.566Z,48.30
2022-09-04T01:28:08.979Z,48.90
2022-09-04T01:30:44.995Z,49.20
2022-09-04T01:33:20.520Z,49.40
2022-09-04T01:35:58.347Z,49.20
2022-09-04T01:38:34.455Z,49.10
2022-09-04T01:41:08.333Z,49.10
2022-09-04T01:43:37.443Z,50.00
2022-09-04T01:46:24.953Z,49.70
2022-09-04T01:48:58.394Z,50.70
2022-09-04T01:51:35.043Z,49.90
2022-09-04T01:54:23.268Z,49.90
2022-09-04T01:56:58.629Z,49.80
2022-09-04T01:59:33.932Z,49.60
2022-09-04T02:02:13.391Z,49.90
2022-09-04T02:04:51.976Z,50.40
2022-09-04T02:07:29.593Z,50.00
2022-09-04T02:10:08.072Z,50.50
2022-09-04T02:12:51.116Z,50.00
2022-09-04T02:15:35.576Z,49.90
2022-09-04T02:18:11.630Z,50.30
2022-09-04T02:20:45.742Z,50.20
2022-09-04T02:23:21.304Z,50.70
2022-09-04T02:25:54.298Z,50.70
2022-09-04T02:28:34.385Z,50.70
2022-09-04T02:31:16.237Z,51.50
2022-09-04T02:33:50.327Z,51.20
2022-09-04T02:36:25.181Z,51.30
2022-09-04T02:39:03.495Z,51.10
2022-09-04T02:41:38.787Z,50.80
2022-09-04T02:44:18.561Z,51.10
2022-09-04T02:47:01.790Z,50.80
2022-09-04T02:49:40.737Z,51.00
2022-09-04T02:52:25.700Z,51.70
2022-09-04T02:55:12.543Z,51.40
2022-09-04T02:57:55.105Z,51.60
2022-09-04T03:00:36.415Z,51.40
2022-09-04T03:03:10.803Z,51.20
2022-09-04T03:05:46.235Z,51.50
2022-09-04T03:08:20.592Z,51.10
2022-09-04T03:10:56.263Z,51.40
2022-09-04T03:13:31.220Z,51.00
2022-09-04T03:16:06.441Z,51.20
2022-09-04T03:19:04.732Z,51.20
2022-09-04T03:21:42.073Z,51.80
2022-09-04T03:24:16.865Z,51.50
2022-09-04T03:26:50.700Z,51.90
2022-09-04T03:29:27.940Z,51.60
2022-09-04T03:32:15.951Z,51.50
2022-09-04T03:34:55.165Z,51.30
2022-09-04T03:37:42.806Z,51.40
2022-09-04T03:40:34.715Z,52.00
2022-09-04T03:43:17.256Z,51.80
2022-09-04T03:45:55.900Z,51.90
2022-09-04T03:48:48.537Z,51.70
2022-09-04T03:51:25.737Z,51.90
2022-09-04T03:54:04.783Z,51.80
2022-09-04T03:56:57.825Z,52.10
2022-09-04T03:59:56.078Z,52.20
2022-09-04T04:02:31.165Z,52.20
2022-09-04T04:05:21.721Z,52.10
2022-09-04T04:08:04.736Z,52.20
2022-09-04T04:10:46.335Z,52.50
2022-09-04T04:13:27.435Z,52.70
2022-09-04T04:16:15.147Z,52.60
2022-09-04T04:18:54.055Z,52.90
2022-09-04T04:21:32.707Z,52.60
2022-09-04T04:24:20.624Z,52.50
2022-09-04T04:27:03.991Z,52.80
2022-09-04T04:29:50.660Z,53.70
2022-09-04T04:32:29.537Z,52.70
2022-09-04T04:35:11.417Z,52.60
2022-09-04T04:37:51.790Z,52.60
2022-09-04T04:40:32.273Z,53.00
2022-09-04T04:43:06.709Z,53.10
2022-09-04T04:45:50.846Z,52.70
2022-09-04T04:49:04.291Z,53.20
2022-09-04T04:52:05.738Z,53.30
2022-09-04T04:54:47.301Z,53.90
2022-09-04T04:57:26.820Z,53.40
2022-09-04T05:00:07.257Z,53.00
2022-09-04T05:02:42.187Z,53.60
2022-09-04T05:05:16.017Z,53.70
2022-09-04T05:07:52.123Z,53.70
2022-09-04T05:10:24.492Z,53.20
2022-09-04T05:13:08.635Z,53.50
2022-09-04T05:16:05.048Z,53.70
2022-09-04T05:18:36.354Z,53.60
2022-09-04T05:21:14.961Z,53.40
2022-09-04T05:23:51.575Z,54.20
2022-09-04T05:26:27.672Z,53.80
2022-09-04T05:29:02.930Z,54.10
2022-09-04T05:31:39.826Z,54.10
2022-09-04T05:34:15.518Z,53.80
2022-09-04T05:36:51.479Z,54.00
2022-09-04T05:39:27.326Z,54.20
2022-09-04T05:42:10.141Z,54.50
2022-09-04T05:44:52.250Z,54.10
2022-09-04T05:47:30.781Z,54.00
2022-09-04T05:50:16.338Z,54.00
2022-09-04T05:53:06.279Z,54.60
2022-09-04T05:55:52.691Z,54.70
2022-09-04T05:58:53.713Z,54.80
2022-09-04T06:01:39.148Z,55.40
2022-09-04T06:04:34.589Z,54.60
2022-09-04T06:07:12.959Z,55.20
2022-09-04T06:09:55.045Z,54.20
2022-09-04T06:12:51.817Z,55.00
2022-09-04T06:15:38.429Z,55.00
2022-09-04T06:18:31.368Z,55.40
2022-09-04T06:21:23.699Z,54.70
2022-09-04T06:24:06.874Z,54.80
2022-09-04T06:27:12.607Z,54.20
2022-09-04T06:30:02.901Z,54.70
2022-09-04T06:32:45.312Z,55.50
2022-09-04T06:35:33.248Z,54.40
2022-09-04T06:38:14.409Z,54.40
2022-09-04T06:40:53.443Z,54.30
2022-09-04T06:43:33.818Z,54.60
2022-09-04T06:46:16.510Z,55.20
2022-09-04T06:48:54.603Z,54.70
2022-09-04T06:51:36.109Z,54.70
2022-09-04T06:54:15.680Z,54.60
2022-09-04T06:57:10.879Z,54.60
2022-09-04T06:59:53.086Z,55.40
2022-09-04T07:02:35.881Z,55.60
2022-09-04T07:05:15.613Z,54.40
2022-09-04T07:07:53.607Z,54.70
2022-09-04T07:10:25.393Z,54.80
2022-09-04T07:13:17.598Z,55.10
2022-09-04T07:16:02.229Z,54.80
2022-09-04T07:18:49.122Z,55.60
2022-09-04T07:21:23.086Z,55.70
2022-09-04T07:24:03.668Z,55.00
2022-09-04T07:26:38.106Z,54.90
2022-09-04T07:29:30.339Z,55.20
2022-09-04T07:32:05.562Z,54.40
2022-09-04T07:34:42.796Z,55.40
2022-09-04T07:37:24.939Z,54.80
2022-09-04T07:40:04.419Z,55.50
2022-09-04T07:42:42.731Z,54.70
2022-09-04T07:45:23.081Z,55.70
2022-09-04T07:47:58.367Z,55.20
2022-09-04T07:50:30.296Z,55.50
2022-09-04T07:53:21.343Z,55.70
2022-09-04T07:55:52.516Z,55.70
2022-09-04T07:58:37.303Z,55.90
2022-09-04T08:01:25.362Z,55.70
2022-09-04T08:04:23.749Z,57.00
2022-09-04T08:06:58.734Z,55.10
2022-09-04T08:09:48.512Z,55.70
2022-09-04T08:12:44.721Z,55.30
2022-09-04T08:15:19.854Z,55.90
2022-09-04T08:18:07.558Z,56.10
2022-09-04T08:20:43.007Z,55.20
2022-09-04T08:23:37.136Z,56.60
2022-09-04T08:26:14.189Z,55.30
2022-09-04T08:28:58.558Z,55.10
2022-09-04T08:31:31.926Z,55.00
2022-09-04T08:34:42.321Z,55.20
2022-09-04T08:37:22.560Z,55.30
2022-09-04T08:40:02.350Z,56.20
2022-09-04T08:42:54.080Z,55.30
2022-09-04T08:45:56.755Z,55.80
2022-09-04T08:49:11.477Z,56.20
2022-09-04T08:52:10.732Z,55.80
2022-09-04T08:55:16.657Z,55.30
2022-09-04T08:58:20.362Z,55.70
2022-09-04T09:01:08.943Z,55.40
2022-09-04T09:04:00.775Z,54.40
2022-09-04T09:07:00.287Z,54.40
2022-09-04T09:09:56.160Z,54.00
2022-09-04T09:12:53.979Z,54.40
2022-09-04T09:15:54.293Z,54.80
2022-09-04T09:18:37.117Z,54.50
2022-09-04T09:21:11.407Z,54.30
2022-09-04T09:23:51.121Z,54.30
2022-09-04T09:26:27.668Z,54.40
2022-09-04T09:29:26.797Z,54.00
2022-09-04T09:32:35.013Z,54.50
2022-09-04T09:35:53.057Z,53.50
2022-09-04T09:39:03.132Z,53.50
2022-09-04T09:42:15.059Z,53.90
2022-09-04T09:45:06.164Z,53.20
2022-09-04T09:47:59.942Z,53.30
2022-09-04T09:51:12.404Z,53.00
2022-09-04T09:54:01.719Z,52.80
2022-09-04T09:57:12.110Z,52.90
2022-09-04T10:00:05.023Z,52.40
2022-09-04T10:03:13.994Z,52.60
2022-09-04T10:06:16.815Z,52.00
2022-09-04T10:09:17.343Z,52.40
2022-09-04T10:12:20.172Z,51.80
2022-09-04T10:15:17.642Z,51.80
2022-09-04T10:18:23.090Z,51.90
2022-09-04T10:21:20.781Z,51.60
2022-09-04T10:24:19.944Z,51.80
2022-09-04T10:27:13.769Z,51.50
2022-09-04T10:30:03.759Z,51.70
2022-09-04T10:33:11.807Z,51.80
2022-09-04T10:35:53.437Z,51.50
2022-09-04T10:38:30.303Z,51.60
2022-09-04T10:41:39.608Z,51.50
2022-09-04T10:44:41.324Z,51.30
2022-09-04T10:47:24.634Z,51.00
2022-09-04T10:50:17.431Z,50.70
2022-09-04T10:53:11.972Z,51.10
2022-09-04T10:55:59.088Z,51.30
2022-09-04T10:58:44.936Z,51.30
2022-09-04T11:01:41.820Z,51.00
2022-09-04T11:04:40.472Z,51.10
2022-09-04T11:07:32.871Z,51.80
2022-09-04T11:10:21.551Z,51.60
2022-09-04T11:13:26.335Z,51.50
2022-09-04T11:16:09.845Z,51.90
2022-09-04T11:19:03.613Z,51.40
2022-09-04T11:22:04.368Z,51.40
2022-09-04T11:25:19.210Z,51.70
2022-09-04T11:28:12.929Z,51.00
2022-09-04T11:31:07.392Z,50.70
2022-09-04T11:34:13.891Z,50.50
2022-09-04T11:37:19.748Z,50.50
2022-09-04T11:40:16.347Z,50.40
2022-09-04T11:43:02.749Z,50.50
2022-09-04T11:45:48.993Z,50.80
2022-09-04T11:48:53.515Z,50.60
2022-09-04T11:52:03.993Z,50.60
2022-09-04T11:55:07.500Z,50.70
2022-09-04T11:57:47.421Z,51.10
2022-09-04T12:00:17.032Z,51.10
2022-09-04T12:03:19.814Z,50.40
2022-09-04T12:06:07.987Z,50.80
2022-09-04T12:09:11.616Z,50.50
2022-09-04T12:12:05.840Z,50.10
2022-09-04T12:14:48.892Z,50.30
2022-09-04T12:17:50.050Z,50.40
2022-09-04T12:20:55.588Z,50.00
2022-09-04T12:23:57.799Z,49.90
2022-09-04T12:26:59.883Z,49.90
2022-09-04T12:30:02.954Z,49.60
2022-09-04T12:33:03.214Z,49.40
2022-09-04T12:36:00.663Z,49.30
2022-09-04T12:38:55.812Z,49.40
2022-09-04T12:41:30.986Z,49.30
2022-09-04T12:44:12.162Z,49.40
2022-09-04T12:47:00.583Z,48.50
2022-09-04T12:49:53.395Z,48.50
2022-09-04T12:52:36.461Z,48.50
2022-09-04T12:55:12.191Z,48.40
2022-09-04T12:57:49.549Z,48.20
2022-09-04T13:00:19.082Z,48.00
2022-09-04T13:03:00.884Z,47.70
2022-09-04T13:05:43.329Z,47.30
2022-09-04T13:08:31.414Z,46.80
2022-09-04T13:11:09.596Z,47.30
2022-09-04T13:13:46.869Z,46.60
2022-09-04T13:16:21.285Z,46.80
2022-09-04T13:19:03.212Z,46.30
2022-09-04T13:21:55.562Z,46.70
2022-09-04T13:24:36.448Z,45.60
2022-09-04T13:27:16.173Z,46.30
2022-09-04T13:30:02.986Z,45.40
2022-09-04T13:32:54.074Z,46.00
2022-09-04T13:35:36.765Z,46.70
2022-09-04T13:38:23.107Z,45.60
2022-09-04T13:41:42.087Z,44.70
2022-09-04T13:44:29.951Z,44.20
2022-09-04T13:47:03.695Z,44.40
2022-09-04T13:49:39.805Z,45.20
2022-09-04T13:52:13.261Z,44.70
2022-09-04T13:54:44.352Z,45.70
2022-09-04T13:57:20.954Z,47.30
2022-09-04T13:59:54.968Z,46.50
2022-09-04T14:02:26.005Z,44.70
2022-09-04T14:05:00.886Z,44.80
2022-09-04T14:07:33.877Z,46.10
2022-09-04T14:10:06.025Z,46.90
2022-09-04T14:12:53.774Z,47.10
2022-09-04T14:15:38.266Z,47.20
2022-09-04T14:18:21.149Z,46.10
2022-09-04T14:21:00.972Z,47.00
2022-09-04T14:23:43.663Z,47.40
2022-09-04T14:26:21.698Z,47.60
2022-09-04T14:28:54.602Z,47.50
2022-09-04T14:31:33.937Z,47.50
2022-09-04T14:34:13.672Z,47.80
2022-09-04T14:36:55.171Z,47.70
2022-09-04T14:39:27.802Z,47.60
2022-09-04T14:42:16.266Z,47.50
2022-09-04T14:45:13.149Z,48.10
2022-09-04T14:47:47.235Z,47.80
2022-09-04T14:50:19.239Z,47.90
2022-09-04T14:52:51.484Z,47.80
2022-09-04T14:55:25.960Z,47.90
2022-09-04T14:58:00.356Z,48.00
2022-09-04T15:00:29.847Z,48.20
2022-09-04T15:03:05.660Z,48.20
2022-09-04T15:05:37.169Z,47.90
2022-09-04T15:08:08.812Z,47.70
2022-09-04T15:10:47.474Z,47.80
2022-09-04T15:13:38.935Z,48.00
2022-09-04T15:16:22.446Z,47.70
2022-09-04T15:19:06.711Z,47.90
2022-09-04T15:21:41.728Z,48.00
2022-09-04T15:24:17.407Z,48.10
2022-09-04T15:26:51.745Z,48.00
2022-09-04T15:29:27.164Z,48.10
2022-09-04T15:32:01.186Z,48.00
2022-09-04T15:34:30.744Z,48.00
2022-09-04T15:37:12.633Z,48.20
2022-09-04T15:39:53.876Z,48.50
2022-09-04T15:42:35.451Z,48.30
2022-09-04T15:45:11.164Z,48.30
2022-09-04T15:47:56.766Z,48.10
2022-09-04T15:50:28.572Z,48.00
2022-09-04T15:53:10.712Z,48.50
2022-09-04T15:55:42.670Z,48.40
2022-09-04T15:58:16.919Z,48.80
2022-09-04T16:01:09.429Z,48.90
2022-09-04T16:03:47.283Z,48.90
2022-09-04T16:06:22.644Z,49.10
2022-09-04T16:08:56.651Z,48.80
2022-09-04T16:11:29.951Z,48.80
2022-09-04T16:13:59.870Z,48.60
2022-09-04T16:16:34.235Z,48.70
2022-09-04T16:19:09.200Z,48.90
2022-09-04T16:21:45.284Z,48.90
2022-09-04T16:24:17.086Z,48.90
2022-09-04T16:26:50.159Z,48.70
2022-09-04T16:29:29.674Z,48.90
2022-09-04T16:31:59.581Z,48.80
2022-09-04T16:34:33.041Z,48.90
2022-09-04T16:37:10.893Z,48.90
2022-09-04T16:39:47.984Z,49.10
2022-09-04T16:42:22.832Z,49.20
2022-09-04T16:44:54.118Z,49.20
2022-09-04T16:47:29.120Z,49.20
2022-09-04T16:50:03.338Z,50.00
2022-09-04T16:52:44.441Z,49.10
2022-09-04T16:55:17.257Z,49.10
2022-09-04T16:57:54.489Z,49.10
2022-09-04T17:00:24.049Z,49.10
2022-09-04T17:02:56.320Z,49.20
2022-09-04T17:05:34.959Z,49.20
2022-09-04T17:08:13.893Z,49.40
2022-09-04T17:10:46.949Z,49.50
2022-09-04T17:13:27.844Z,49.40
2022-09-04T17:16:01.638Z,49.30
2022-09-04T17:18:30.790Z,49.40
2022-09-04T17:24:07.986Z,49.40
2022-09-04T17:28:59.006Z,49.50
2022-09-04T17:29:09.206Z,49.40
2022-09-04T17:29:49.519Z,49.50
2022-09-04T17:33:35.553Z,49.40
2022-09-04T17:40:44.351Z,49.50
2022-09-04T17:40:54.113Z,49.50
2022-09-04T17:41:40.151Z,49.40
2022-09-04T17:44:22.257Z,49.70
2022-09-04T17:47:04.517Z,49.80
2022-09-04T17:49:35.144Z,49.70
2022-09-04T17:52:08.687Z,49.70
2022-09-04T17:54:41.901Z,49.80
2022-09-04T17:57:14.988Z,50.10
2022-09-04T17:59:50.283Z,49.90
2022-09-04T18:02:26.946Z,50.20
2022-09-04T18:05:04.179Z,50.20
2022-09-04T18:08:07.931Z,50.00
2022-09-04T18:10:32.337Z,50.10
2022-09-04T18:13:27.100Z,50.80
2022-09-04T18:16:26.836Z,50.70
2022-09-04T18:18:59.730Z,50.80
2022-09-04T18:21:32.828Z,50.80
2022-09-04T18:24:05.931Z,51.30
2022-09-04T18:26:40.689Z,51.30
2022-09-04T18:31:11.317Z,51.30
2022-09-04T18:37:09.419Z,51.30
2022-09-04T18:37:19.633Z,51.00
2022-09-04T18:38:20.425Z,51.50
2022-09-04T18:45:14.969Z,51.90
2022-09-04T18:50:23.411Z,51.50
2022-09-04T18:50:39.224Z,51.60
2022-09-04T18:50:47.268Z,51.60
2022-09-04T18:52:19.435Z,51.80
2022-09-04T18:54:50.743Z,51.90
2022-09-04T18:57:28.309Z,52.20
2022-09-04T19:00:09.522Z,52.30
2022-09-04T19:02:53.055Z,52.10
2022-09-04T19:05:24.527Z,52.60
2022-09-04T19:07:59.819Z,52.50
2022-09-04T19:10:30.683Z,52.60
2022-09-04T19:13:03.968Z,53.00
2022-09-04T19:15:50.869Z,52.60
2022-09-04T19:18:27.390Z,52.60
2022-09-04T19:21:15.072Z,52.80
2022-09-04T19:23:50.045Z,53.20
2022-09-04T19:26:26.209Z,53.20
2022-09-04T19:29:00.105Z,53.10
2022-09-04T19:31:33.461Z,53.20
2022-09-04T19:34:09.624Z,53.20
2022-09-04T19:36:43.752Z,53.60
2022-09-04T19:45:59.861Z,53.90
2022-09-04T19:46:05.540Z,53.80
2022-09-04T19:46:18.141Z,53.80
2022-09-04T19:48:22.378Z,53.80
2022-09-04T19:53:21.496Z,53.90
2022-09-04T19:53:57.323Z,53.90
2022-09-04T19:56:31.923Z,54.30
2022-09-04T19:59:18.832Z,54.20
2022-09-04T20:01:50.753Z,54.10
2022-09-04T20:04:30.151Z,54.30
2022-09-04T20:07:02.883Z,54.40
2022-09-04T20:09:37.388Z,54.60
2022-09-04T20:12:19.329Z,54.90
2022-09-04T20:14:55.068Z,55.20
2022-09-04T20:17:44.501Z,55.00
2022-09-04T20:20:23.097Z,54.90
2022-09-04T20:22:56.515Z,54.80
2022-09-04T20:25:37.575Z,55.10
2022-09-04T20:28:24.985Z,55.40
2022-09-04T20:31:36.137Z,55.40
2022-09-04T20:34:01.024Z,55.30
2022-09-04T20:36:33.979Z,55.10
2022-09-04T20:39:08.292Z,55.20
2022-09-04T20:41:47.764Z,55.20
2022-09-04T20:44:24.519Z,55.10
2022-09-04T20:52:42.966Z,55.30
2022-09-04T20:52:59.024Z,55.10
2022-09-04T20:53:08.511Z,55.20
2022-09-04T20:56:24.749Z,56.30
2022-09-04T21:03:11.778Z,55.10
2022-09-04T21:03:14.862Z,55.20
2022-09-04T21:05:25.393Z,55.60
2022-09-04T21:07:57.921Z,55.80
2022-09-04T21:10:32.474Z,55.70
2022-09-04T21:13:14.202Z,55.70
2022-09-04T21:15:49.143Z,55.80
2022-09-04T21:18:46.375Z,56.00
2022-09-04T21:22:02.834Z,56.50
2022-09-04T21:24:54.611Z,55.90
2022-09-04T21:27:45.119Z,56.50
2022-09-04T21:30:16.119Z,56.30
2022-09-04T21:33:28.085Z,56.10
2022-09-04T21:36:25.744Z,56.40
2022-09-04T21:39:08.916Z,56.30
2022-09-04T21:41:57.895Z,56.40
2022-09-04T21:45:03.795Z,56.70
2022-09-04T21:47:53.599Z,56.40
2022-09-04T21:50:44.185Z,56.50
2022-09-04T21:53:32.372Z,56.20
2022-09-04T21:58:41.230Z,56.20
2022-09-04T22:02:45.024Z,55.70
2022-09-04T22:02:51.548Z,56.10
2022-09-04T22:05:27.445Z,55.70
2022-09-04T22:13:29.478Z,56.20
2022-09-04T22:13:35.346Z,56.20
2022-09-04T22:14:04.357Z,56.10
2022-09-04T22:16:47.650Z,56.10
2022-09-04T22:19:27.684Z,56.10
2022-09-04T22:22:05.027Z,56.00
2022-09-04T22:25:19.959Z,56.10
2022-09-04T22:28:37.917Z,56.20
2022-09-04T22:31:56.359Z,56.00
2022-09-04T22:34:59.873Z,55.80
2022-09-04T22:37:59.779Z,55.80
2022-09-04T22:40:55.961Z,56.10
2022-09-04T22:43:26.399Z,55.80
2022-09-04T22:46:30.771Z,55.50
2022-09-04T22:49:26.319Z,55.40
2022-09-04T22:52:25.228Z,56.40
2022-09-04T22:55:17.835Z,55.90
2022-09-04T22:58:08.072Z,56.10
2022-09-04T23:01:02.451Z,56.10
2022-09-04T23:03:49.662Z,55.90
2022-09-04T23:08:08.518Z,55.60
2022-09-04T23:13:58.372Z,55.10
2022-09-04T23:14:00.191Z,55.10
2022-09-04T23:16:28.101Z,54.20
2022-09-04T23:23:48.916Z,54.30
2022-09-04T23:26:51.089Z,54.20
2022-09-04T23:26:52.825Z,53.70
2022-09-04T23:28:31.623Z,52.50
2022-09-04T23:31:27.252Z,51.80
2022-09-04T23:34:26.012Z,51.50
2022-09-04T23:37:28.524Z,51.00
2022-09-04T23:40:18.716Z,50.70
2022-09-04T23:43:09.038Z,50.70
2022-09-04T23:46:08.070Z,50.60
2022-09-04T23:49:06.755Z,49.90
2022-09-04T23:51:46.517Z,49.90
2022-09-04T23:54:52.388Z,49.80
2022-09-04T23:57:27.680Z,49.50
